createdAt,value
2022-12-08T00:00:02.110Z,6.50
2022-12-08T00:01:24.936Z,10.32
2022-12-08T00:02:45.731Z,10.80
2022-12-08T00:04:07.147Z,6.80
2022-12-08T00:05:27.701Z,12.32
2022-12-08T00:06:48.703Z,11.27
2022-12-08T00:08:10.029Z,12.77
2022-12-08T00:09:38.166Z,9.57
2022-12-08T00:11:00.107Z,9.30
2022-12-08T00:12:21.940Z,15.60
2022-12-08T00:13:42.406Z,11.88
2022-12-08T00:15:04.189Z,14.98
2022-12-08T00:16:25.750Z,13.35
2022-12-08T00:17:46.644Z,12.25
2022-12-08T00:19:07.488Z,16.05
2022-12-08T00:20:27.962Z,17.27
2022-12-08T00:21:49.151Z,18.25
2022-12-08T00:23:09.751Z,16.30
2022-12-08T00:24:32.513Z,15.93
2022-12-08T00:25:52.948Z,20.92
2022-12-08T00:27:15.541Z,18.45
2022-12-08T00:28:37.583Z,22.83
2022-12-08T00:29:58.425Z,21.58
2022-12-08T00:31:19.343Z,19.42
2022-12-08T00:32:39.928Z,23.08
2022-12-08T00:34:01.035Z,26.85
2022-12-08T00:35:21.817Z,21.38
2022-12-08T00:36:43.089Z,20.25
2022-12-08T00:38:03.747Z,26.10
2022-12-08T00:39:26.273Z,18.70
2022-12-08T00:40:47.632Z,17.92
2022-12-08T00:42:08.622Z,23.83
2022-12-08T00:43:29.537Z,20.85
2022-12-08T00:44:51.709Z,19.00
2022-12-08T00:46:12.238Z,22.02
2022-12-08T00:47:32.906Z,21.55
2022-12-08T00:48:53.673Z,20.70
2022-12-08T00:50:14.681Z,20.10
2022-12-08T00:51:35.921Z,17.38
2022-12-08T00:52:56.323Z,22.63
2022-12-08T00:54:17.331Z,20.13
2022-12-08T00:55:37.682Z,16.58
2022-12-08T00:56:58.800Z,20.27
2022-12-08T00:58:19.555Z,19.02
2022-12-08T00:59:40.465Z,21.98
2022-12-08T01:01:02.588Z,20.83
2022-12-08T01:02:23.097Z,21.67
2022-12-08T01:03:44.311Z,12.32
2022-12-08T01:05:05.285Z,18.25
2022-12-08T01:06:26.207Z,13.30
2022-12-08T01:07:47.094Z,18.70
2022-12-08T01:09:08.664Z,20.50
2022-12-08T01:10:29.262Z,19.38
2022-12-08T01:11:50.223Z,12.45
2022-12-08T01:13:10.703Z,15.90
2022-12-08T01:14:31.427Z,13.23
2022-12-08T01:15:52.123Z,19.50
2022-12-08T01:17:14.280Z,20.33
2022-12-08T01:18:35.179Z,17.08
2022-12-08T01:19:56.387Z,20.17
2022-12-08T01:21:17.583Z,14.57
2022-12-08T01:22:47.253Z,20.23
2022-12-08T01:24:11.316Z,13.85
2022-12-08T01:25:34.335Z,19.05
2022-12-08T01:26:55.008Z,20.65
2022-12-08T01:28:15.906Z,16.88
2022-12-08T01:29:36.683Z,18.23
2022-12-08T01:30:57.396Z,13.98
2022-12-08T01:32:19.523Z,21.38
2022-12-08T01:33:40.668Z,15.95
2022-12-08T01:35:01.805Z,19.73
2022-12-08T01:36:23.863Z,18.15
2022-12-08T01:37:44.481Z,23.27
2022-12-08T01:39:07.372Z,19.42
2022-12-08T01:40:28.508Z,14.30
2022-12-08T01:41:49.191Z,14.50
2022-12-08T01:43:11.000Z,15.47
2022-12-08T01:44:53.004Z,21.30
2022-12-08T01:46:13.953Z,14.65
2022-12-08T01:47:42.105Z,14.68
2022-12-08T01:49:05.807Z,20.90
2022-12-08T01:50:27.838Z,15.45
2022-12-08T01:51:52.695Z,17.92
2022-12-08T01:53:16.962Z,12.95
2022-12-08T01:54:44.669Z,17.70
2022-12-08T01:56:08.300Z,12.77
2022-12-08T01:57:31.118Z,12.55
2022-12-08T01:58:53.138Z,14.52
2022-12-08T02:00:16.472Z,12.20
2022-12-08T02:01:37.380Z,10.25
2022-12-08T02:03:02.259Z,20.27
2022-12-08T02:04:23.159Z,14.82
2022-12-08T02:05:44.334Z,9.68
2022-12-08T02:07:08.168Z,13.45
2022-12-08T02:08:29.734Z,9.77
2022-12-08T02:09:50.960Z,11.90
2022-12-08T02:12:32.528Z,12.93
2022-12-08T02:13:53.798Z,15.18
2022-12-08T02:15:14.969Z,14.13
2022-12-08T02:16:39.920Z,13.88
2022-12-08T02:18:22.945Z,9.82
2022-12-08T02:20:13.825Z,10.70
2022-12-08T02:21:38.189Z,15.23
2022-12-08T02:23:03.792Z,15.02
2022-12-08T02:24:30.557Z,11.50
2022-12-08T02:26:27.067Z,7.78
2022-12-08T02:27:59.133Z,9.60
2022-12-08T02:29:58.299Z,11.77
2022-12-08T02:31:23.567Z,13.05
2022-12-08T02:33:24.417Z,8.27
2022-12-08T02:34:48.572Z,10.82
2022-12-08T02:36:14.115Z,8.77
2022-12-08T02:37:37.489Z,8.32
2022-12-08T02:39:03.608Z,9.70
2022-12-08T02:40:27.117Z,10.65
2022-12-08T02:41:51.848Z,11.60
2022-12-08T02:43:16.820Z,12.02
2022-12-08T02:44:39.975Z,7.90
2022-12-08T02:46:02.402Z,8.75
2022-12-08T02:47:24.613Z,5.28
2022-12-08T02:48:45.542Z,12.85
2022-12-08T02:50:09.327Z,7.68
2022-12-08T02:51:29.983Z,7.28
2022-12-08T02:52:50.792Z,8.85
2022-12-08T02:54:12.096Z,2.97
2022-12-08T02:55:37.736Z,8.15
2022-12-08T02:57:13.482Z,4.68
2022-12-08T02:59:05.691Z,5.68
2022-12-08T03:00:28.095Z,8.32
2022-12-08T03:02:00.407Z,16.33
2022-12-08T03:03:29.046Z,7.38
2022-12-08T03:04:56.751Z,5.30
2022-12-08T03:06:25.008Z,6.68
2022-12-08T03:07:50.376Z,11.23
2022-12-08T03:09:14.599Z,8.10
2022-12-08T03:10:39.968Z,7.80
2022-12-08T03:12:04.950Z,7.85
2022-12-08T03:13:29.957Z,11.27
2022-12-08T03:14:52.902Z,12.20
2022-12-08T03:16:15.695Z,9.82
2022-12-08T03:17:37.479Z,12.68
2022-12-08T03:19:01.950Z,8.70
2022-12-08T03:20:28.029Z,17.05
2022-12-08T03:21:51.363Z,12.73
2022-12-08T03:23:13.639Z,8.55
2022-12-08T03:24:36.376Z,16.67
2022-12-08T03:25:59.946Z,5.72
2022-12-08T03:27:21.658Z,12.18
2022-12-08T03:30:03.050Z,10.48
2022-12-08T03:31:25.914Z,6.68
2022-12-08T03:32:51.409Z,9.98
2022-12-08T03:34:12.827Z,12.25
2022-12-08T03:35:35.469Z,15.68
2022-12-08T03:36:57.655Z,11.07
2022-12-08T03:38:18.249Z,11.50
2022-12-08T03:39:38.821Z,10.50
2022-12-08T03:40:59.474Z,9.20
2022-12-08T03:42:20.388Z,13.85
2022-12-08T03:43:40.944Z,19.73
2022-12-08T03:45:01.565Z,15.85
2022-12-08T03:47:45.712Z,11.27
2022-12-08T03:49:06.247Z,8.85
2022-12-08T03:50:27.193Z,12.48
2022-12-08T03:51:47.766Z,8.00
2022-12-08T03:53:09.675Z,10.20
2022-12-08T03:54:30.366Z,13.07
2022-12-08T03:55:53.407Z,10.20
2022-12-08T03:57:14.096Z,8.00
2022-12-08T03:58:37.457Z,14.60
2022-12-08T03:59:58.209Z,13.15
2022-12-08T04:01:19.279Z,15.98
2022-12-08T04:02:39.775Z,10.30
2022-12-08T04:04:00.459Z,9.30
2022-12-08T04:05:21.353Z,13.48
2022-12-08T04:06:41.884Z,12.20
2022-12-08T04:08:02.411Z,10.82
2022-12-08T04:09:24.528Z,8.55
2022-12-08T04:10:45.039Z,9.88
2022-12-08T04:12:06.196Z,14.88
2022-12-08T04:13:27.105Z,8.82
2022-12-08T04:14:47.632Z,10.83
2022-12-08T04:16:08.837Z,8.77
2022-12-08T04:17:29.849Z,16.30
2022-12-08T04:18:50.635Z,11.65
2022-12-08T04:20:12.090Z,7.18
2022-12-08T04:21:32.588Z,10.48
2022-12-08T04:22:53.094Z,6.70
2022-12-08T04:24:13.711Z,6.28
2022-12-08T04:25:36.086Z,8.25
2022-12-08T04:26:56.730Z,4.70
2022-12-08T04:28:17.463Z,4.82
2022-12-08T04:29:38.210Z,4.13
2022-12-08T04:30:59.310Z,5.53
2022-12-08T04:32:19.890Z,3.03
2022-12-08T04:33:40.598Z,6.85
2022-12-08T04:35:01.446Z,2.10
2022-12-08T04:36:22.187Z,5.53
2022-12-08T04:37:42.952Z,8.50
2022-12-08T04:39:03.770Z,8.40
2022-12-08T04:40:27.027Z,6.38
2022-12-08T04:41:49.241Z,6.55
2022-12-08T04:43:09.761Z,16.85
2022-12-08T04:44:30.568Z,5.60
2022-12-08T04:45:51.468Z,2.65
2022-12-08T04:47:12.042Z,8.82
2022-12-08T04:48:33.314Z,15.75
2022-12-08T04:49:53.859Z,6.43
2022-12-08T04:51:15.918Z,10.13
2022-12-08T04:52:36.707Z,4.18
2022-12-08T04:53:57.531Z,9.13
2022-12-08T04:55:18.412Z,29.65
2022-12-08T04:56:38.953Z,6.97
2022-12-08T04:58:01.076Z,8.13
2022-12-08T04:59:21.519Z,10.52
2022-12-08T05:00:42.260Z,7.77
2022-12-08T05:02:03.330Z,12.63
2022-12-08T05:03:28.538Z,6.63
2022-12-08T05:04:49.298Z,9.25
2022-12-08T05:06:11.790Z,13.43
2022-12-08T05:07:32.308Z,6.78
2022-12-08T05:08:53.142Z,10.77
2022-12-08T05:10:13.826Z,8.90
2022-12-08T05:11:34.387Z,5.63
2022-12-08T05:12:55.138Z,3.17
2022-12-08T05:14:18.912Z,9.32
2022-12-08T05:15:39.332Z,5.05
2022-12-08T05:17:02.565Z,8.38
2022-12-08T05:18:25.490Z,2.95
2022-12-08T05:19:46.343Z,5.15
2022-12-08T05:21:07.318Z,10.32
2022-12-08T05:22:27.735Z,8.05
2022-12-08T05:23:48.226Z,4.82
2022-12-08T05:25:09.291Z,7.75
2022-12-08T05:26:29.760Z,10.73
2022-12-08T05:27:50.367Z,4.30
2022-12-08T05:29:11.149Z,5.38
2022-12-08T05:30:32.892Z,9.27
2022-12-08T05:31:53.449Z,5.57
2022-12-08T05:33:14.128Z,9.20
2022-12-08T05:34:34.619Z,6.80
2022-12-08T05:35:55.386Z,7.00
2022-12-08T05:37:16.118Z,8.85
2022-12-08T05:38:36.867Z,6.88
2022-12-08T05:39:57.507Z,4.25
2022-12-08T05:41:20.646Z,4.70
2022-12-08T05:42:41.324Z,9.48
2022-12-08T05:44:03.352Z,4.50
2022-12-08T05:45:24.071Z,10.90
2022-12-08T05:46:46.081Z,6.80
2022-12-08T05:48:06.775Z,12.70
2022-12-08T05:49:27.450Z,9.43
2022-12-08T05:50:48.805Z,7.93
2022-12-08T05:52:09.419Z,19.73
2022-12-08T05:53:30.165Z,8.27
2022-12-08T05:54:52.206Z,5.32
2022-12-08T05:56:13.170Z,7.85
2022-12-08T05:57:33.809Z,4.30
2022-12-08T05:58:54.659Z,4.10
2022-12-08T06:00:16.033Z,4.65
2022-12-08T06:02:58.559Z,4.45
2022-12-08T06:04:19.445Z,0.50
2022-12-08T06:05:40.689Z,6.85
2022-12-08T06:07:00.944Z,5.25
2022-12-08T06:08:21.675Z,9.60
2022-12-08T06:09:42.507Z,8.02
2022-12-08T06:11:03.337Z,4.82
2022-12-08T06:12:24.129Z,3.05
2022-12-08T06:13:45.160Z,2.67
2022-12-08T06:15:06.471Z,4.83
2022-12-08T06:16:27.676Z,3.78
2022-12-08T06:17:48.654Z,5.82
2022-12-08T06:19:10.707Z,5.85
2022-12-08T06:20:31.502Z,2.97
2022-12-08T06:21:51.726Z,3.40
2022-12-08T06:23:12.225Z,2.17
2022-12-08T06:24:33.257Z,5.68
2022-12-08T06:25:54.192Z,3.83
2022-12-08T06:27:14.887Z,10.65
2022-12-08T06:28:35.804Z,5.32
2022-12-08T06:29:56.261Z,4.35
2022-12-08T06:31:19.243Z,5.38
2022-12-08T06:32:39.987Z,4.65
2022-12-08T06:34:00.705Z,3.80
2022-12-08T06:35:22.538Z,3.67
2022-12-08T06:36:49.952Z,2.08
2022-12-08T06:38:10.647Z,3.25
2022-12-08T06:39:31.153Z,4.45
2022-12-08T06:40:54.066Z,2.13
2022-12-08T06:42:14.427Z,4.00
2022-12-08T06:43:35.276Z,3.00
2022-12-08T06:44:56.144Z,1.58
2022-12-08T06:46:19.117Z,9.40
2022-12-08T06:47:39.747Z,1.65
2022-12-08T06:49:00.321Z,3.22
2022-12-08T06:50:22.680Z,2.05
2022-12-08T06:51:43.299Z,2.13
2022-12-08T06:53:05.692Z,7.80
2022-12-08T06:54:27.022Z,4.50
2022-12-08T06:55:59.152Z,4.85
2022-12-08T06:57:21.095Z,4.38
2022-12-08T07:00:12.084Z,4.28
2022-12-08T07:01:32.767Z,6.72
2022-12-08T07:02:53.590Z,2.85
2022-12-08T07:04:14.940Z,2.90
2022-12-08T07:05:37.656Z,7.28
2022-12-08T07:06:58.315Z,2.58
2022-12-08T07:08:19.123Z,6.82
2022-12-08T07:09:39.878Z,6.63
2022-12-08T07:11:06.684Z,12.65
2022-12-08T07:12:27.705Z,5.95
2022-12-08T07:13:49.579Z,9.18
2022-12-08T07:15:11.182Z,6.85
2022-12-08T07:16:31.634Z,9.48
2022-12-08T07:17:57.920Z,6.30
2022-12-08T07:19:21.392Z,3.85
2022-12-08T07:22:03.907Z,9.77
2022-12-08T07:23:24.700Z,8.43
2022-12-08T07:24:45.191Z,7.10
2022-12-08T07:26:07.664Z,5.60
2022-12-08T07:27:28.364Z,10.80
2022-12-08T07:28:48.814Z,7.75
2022-12-08T07:30:10.252Z,8.48
2022-12-08T07:31:30.917Z,6.05
2022-12-08T07:32:51.729Z,7.07
2022-12-08T07:34:12.913Z,7.53
2022-12-08T07:35:35.071Z,5.90
2022-12-08T07:36:57.571Z,5.07
2022-12-08T07:38:18.235Z,5.32
2022-12-08T07:39:38.790Z,7.13
2022-12-08T07:40:59.609Z,11.60
2022-12-08T07:42:20.234Z,6.93
2022-12-08T07:43:40.863Z,7.17
2022-12-08T07:45:01.785Z,5.45
2022-12-08T07:46:24.039Z,6.72
2022-12-08T07:47:44.434Z,8.43
2022-12-08T07:49:04.986Z,9.70
2022-12-08T07:50:25.483Z,7.63
2022-12-08T07:51:46.136Z,6.85
2022-12-08T07:53:08.373Z,4.10
2022-12-08T07:54:28.862Z,9.38
2022-12-08T07:55:49.401Z,2.93
2022-12-08T07:57:10.179Z,4.88
2022-12-08T07:58:30.762Z,7.03
2022-12-08T07:59:51.474Z,6.20
2022-12-08T08:01:23.187Z,3.05
2022-12-08T08:04:05.321Z,4.90
2022-12-08T08:05:25.940Z,6.70
2022-12-08T08:06:46.675Z,4.88
2022-12-08T08:08:08.636Z,8.30
2022-12-08T08:09:29.070Z,3.08
2022-12-08T08:10:49.733Z,6.83
2022-12-08T08:12:30.155Z,4.25
2022-12-08T08:13:51.264Z,5.63
2022-12-08T08:15:12.051Z,6.20
2022-12-08T08:16:38.128Z,5.40
2022-12-08T08:17:59.307Z,7.47
2022-12-08T08:19:19.914Z,6.40
2022-12-08T08:20:40.875Z,6.03
2022-12-08T08:22:01.469Z,3.85
2022-12-08T08:23:23.492Z,7.85
2022-12-08T08:24:45.264Z,4.55
2022-12-08T08:26:05.873Z,11.45
2022-12-08T08:27:26.290Z,9.80
2022-12-08T08:28:47.026Z,3.25
2022-12-08T08:30:09.037Z,8.05
2022-12-08T08:31:29.600Z,9.20
2022-12-08T08:32:50.098Z,9.40
2022-12-08T08:34:10.839Z,5.68
2022-12-08T08:35:31.758Z,5.65
2022-12-08T08:36:52.420Z,4.47
2022-12-08T08:38:13.391Z,5.73
2022-12-08T08:39:35.208Z,9.05
2022-12-08T08:40:55.771Z,4.70
2022-12-08T08:42:16.250Z,6.95
2022-12-08T08:43:38.521Z,6.22
2022-12-08T08:44:59.612Z,6.68
2022-12-08T08:46:20.618Z,4.35
2022-12-08T08:47:41.039Z,4.57
2022-12-08T08:49:01.688Z,3.67
2022-12-08T08:50:22.262Z,8.27
2022-12-08T08:51:42.827Z,9.15
2022-12-08T08:53:03.519Z,13.13
2022-12-08T08:54:24.295Z,9.68
2022-12-08T08:55:46.231Z,11.32
2022-12-08T08:57:06.626Z,8.90
2022-12-08T08:58:27.298Z,8.00
2022-12-08T08:59:47.999Z,9.07
2022-12-08T09:01:08.741Z,14.85
2022-12-08T09:02:29.368Z,9.90
2022-12-08T09:03:50.322Z,23.45
2022-12-08T09:05:10.819Z,14.00
2022-12-08T09:06:31.926Z,8.68
2022-12-08T09:07:53.082Z,10.60
2022-12-08T09:09:13.825Z,10.88
2022-12-08T09:10:34.389Z,15.90
2022-12-08T09:11:57.290Z,12.10
2022-12-08T09:13:17.803Z,12.60
2022-12-08T09:14:38.775Z,8.27
2022-12-08T09:16:00.886Z,14.07
2022-12-08T09:17:20.985Z,10.55
2022-12-08T09:18:41.532Z,11.80
2022-12-08T09:20:02.245Z,6.25
2022-12-08T09:21:24.276Z,6.82
2022-12-08T09:22:44.802Z,3.60
2022-12-08T09:24:06.028Z,6.10
2022-12-08T09:25:26.646Z,3.38
2022-12-08T09:26:47.035Z,7.43
2022-12-08T09:28:09.228Z,5.25
2022-12-08T09:29:35.364Z,7.18
2022-12-08T09:30:56.911Z,5.18
2022-12-08T09:32:17.876Z,3.78
2022-12-08T09:33:38.423Z,5.20
2022-12-08T09:34:59.154Z,6.82
2022-12-08T09:36:22.802Z,7.53
2022-12-08T09:37:43.647Z,7.55
2022-12-08T09:39:04.336Z,9.07
2022-12-08T09:40:26.395Z,7.47
2022-12-08T09:41:49.308Z,9.07
2022-12-08T09:43:24.268Z,7.38
2022-12-08T09:44:50.770Z,7.65
2022-12-08T09:46:15.138Z,10.30
2022-12-08T09:47:37.687Z,11.20
2022-12-08T09:48:59.748Z,7.35
2022-12-08T09:50:27.993Z,9.75
2022-12-08T09:51:48.919Z,9.90
2022-12-08T09:53:12.623Z,13.05
2022-12-08T09:54:35.033Z,13.95
2022-12-08T09:55:57.769Z,12.95
2022-12-08T09:57:20.751Z,15.35
2022-12-08T09:58:49.272Z,14.88
2022-12-08T10:00:12.587Z,10.93
2022-12-08T10:01:35.211Z,11.57
2022-12-08T10:02:56.203Z,13.48
2022-12-08T10:04:22.233Z,14.32
2022-12-08T10:05:46.898Z,10.27
2022-12-08T10:07:15.232Z,9.80
2022-12-08T10:08:43.742Z,11.90
2022-12-08T10:10:12.465Z,15.02
2022-12-08T10:11:40.931Z,11.55
2022-12-08T10:13:05.473Z,8.80
2022-12-08T10:14:33.834Z,12.27
2022-12-08T10:16:01.841Z,13.25
2022-12-08T10:17:24.593Z,13.68
2022-12-08T10:18:45.704Z,9.88
2022-12-08T10:20:12.180Z,6.65
2022-12-08T10:21:36.163Z,12.95
2022-12-08T10:23:02.626Z,9.57
2022-12-08T10:24:27.021Z,9.48
2022-12-08T10:25:49.130Z,12.82
2022-12-08T10:27:11.452Z,7.80
2022-12-08T10:28:33.808Z,4.00
2022-12-08T10:29:55.988Z,6.75
2022-12-08T10:31:18.715Z,5.50
2022-12-08T10:32:39.845Z,4.00
2022-12-08T10:34:02.222Z,6.45
2022-12-08T10:35:24.028Z,5.72
2022-12-08T10:36:46.285Z,5.55
2022-12-08T10:38:17.016Z,7.18
2022-12-08T10:39:38.618Z,3.05
2022-12-08T10:41:03.688Z,6.28
2022-12-08T10:42:24.081Z,5.75
2022-12-08T10:43:47.189Z,7.35
2022-12-08T10:45:25.404Z,3.97
2022-12-08T10:46:46.165Z,4.88
2022-12-08T10:48:14.422Z,7.88
2022-12-08T10:49:35.013Z,3.53
2022-12-08T10:50:57.641Z,5.93
2022-12-08T10:52:23.100Z,10.68
2022-12-08T10:53:46.707Z,4.72
2022-12-08T10:55:14.887Z,5.78
2022-12-08T10:56:35.370Z,5.45
2022-12-08T10:57:56.102Z,9.57
2022-12-08T10:59:18.946Z,6.88
2022-12-08T11:00:40.953Z,7.45
2022-12-08T11:02:01.549Z,4.32
2022-12-08T11:03:25.489Z,7.25
2022-12-08T11:04:46.453Z,7.85
2022-12-08T11:06:13.538Z,8.02
2022-12-08T11:07:34.112Z,8.98
2022-12-08T11:08:56.516Z,6.40
2022-12-08T11:10:19.130Z,8.68
2022-12-08T11:11:45.072Z,6.95
2022-12-08T11:13:07.288Z,5.07
2022-12-08T11:14:29.439Z,7.18
2022-12-08T11:15:52.490Z,6.25
2022-12-08T11:17:15.160Z,9.55
2022-12-08T11:18:41.017Z,16.15
2022-12-08T11:20:04.593Z,5.43
2022-12-08T11:21:34.728Z,8.52
2022-12-08T11:22:56.268Z,7.70
2022-12-08T11:24:23.096Z,6.38
2022-12-08T11:25:43.840Z,13.25
2022-12-08T11:27:05.435Z,4.47
2022-12-08T11:28:26.141Z,5.95
2022-12-08T11:29:46.712Z,4.47
2022-12-08T11:31:22.713Z,7.97
2022-12-08T11:32:45.156Z,14.07
2022-12-08T11:34:06.705Z,9.25
2022-12-08T11:36:50.212Z,4.43
2022-12-08T11:39:48.416Z,11.65
2022-12-08T11:41:15.776Z,6.47
2022-12-08T11:42:44.023Z,5.95
2022-12-08T11:44:08.054Z,6.28
2022-12-08T11:45:31.943Z,7.68
2022-12-08T11:46:55.898Z,8.20
2022-12-08T11:48:18.492Z,9.45
2022-12-08T11:49:41.327Z,5.85
2022-12-08T11:51:05.587Z,2.53
2022-12-08T11:52:29.799Z,5.45
2022-12-08T11:54:05.480Z,5.07
2022-12-08T11:55:37.091Z,5.97
2022-12-08T11:57:01.240Z,5.93
2022-12-08T11:58:25.103Z,12.60
2022-12-08T11:59:48.634Z,7.35
2022-12-08T12:01:18.552Z,6.35
2022-12-08T12:02:45.977Z,8.98
2022-12-08T12:04:13.583Z,11.65
2022-12-08T12:06:08.632Z,2.95
2022-12-08T12:07:55.813Z,7.03
2022-12-08T12:09:38.111Z,4.55
2022-12-08T12:11:06.654Z,5.05
2022-12-08T12:12:39.952Z,4.40
2022-12-08T12:14:10.658Z,1.58
2022-12-08T12:16:13.495Z,5.38
2022-12-08T12:17:44.142Z,3.00
2022-12-08T12:19:06.218Z,2.30
2022-12-08T12:20:30.210Z,10.02
2022-12-08T12:21:53.442Z,8.23
2022-12-08T12:23:18.950Z,8.27
2022-12-08T12:24:39.836Z,4.05
2022-12-08T12:26:01.939Z,4.53
2022-12-08T12:27:39.608Z,4.38
2022-12-08T12:29:01.934Z,7.97
2022-12-08T12:30:25.499Z,4.30
2022-12-08T12:31:49.890Z,6.18
2022-12-08T12:33:15.662Z,5.93
2022-12-08T12:34:38.663Z,4.90
2022-12-08T12:36:02.975Z,6.25
2022-12-08T12:37:25.169Z,6.72
2022-12-08T12:38:48.072Z,7.95
2022-12-08T12:40:17.274Z,8.70
2022-12-08T12:41:43.268Z,6.57
2022-12-08T12:43:24.251Z,9.30
2022-12-08T12:44:44.955Z,9.10
2022-12-08T12:46:53.164Z,13.73
2022-12-08T12:48:21.765Z,9.32
2022-12-08T12:50:13.740Z,9.57
2022-12-08T12:51:45.244Z,9.10
2022-12-08T12:53:10.766Z,9.38
2022-12-08T12:54:34.111Z,9.02
2022-12-08T12:55:55.630Z,12.93
2022-12-08T12:58:38.860Z,8.68
2022-12-08T13:00:10.482Z,10.73
2022-12-08T13:01:53.857Z,11.35
2022-12-08T13:03:17.331Z,11.82
2022-12-08T13:04:37.964Z,12.68
2022-12-08T13:05:59.421Z,14.73
2022-12-08T13:07:21.498Z,8.52
2022-12-08T13:08:50.574Z,11.77
2022-12-08T13:10:17.091Z,7.50
2022-12-08T13:11:48.054Z,11.38
2022-12-08T13:13:17.082Z,7.07
2022-12-08T13:14:43.662Z,11.75
2022-12-08T13:16:17.173Z,13.80
2022-12-08T13:17:44.944Z,7.97
2022-12-08T13:19:13.931Z,12.32
2022-12-08T13:20:42.155Z,11.25
2022-12-08T13:22:02.749Z,7.28
2022-12-08T13:23:29.937Z,12.38
2022-12-08T13:24:50.803Z,10.88
2022-12-08T13:26:14.833Z,9.32
2022-12-08T13:27:35.322Z,13.82
2022-12-08T13:29:14.771Z,10.00
2022-12-08T13:30:42.919Z,8.32
2022-12-08T13:32:04.054Z,12.25
2022-12-08T13:33:30.447Z,8.77
2022-12-08T13:35:03.323Z,8.32
2022-12-08T13:36:33.885Z,14.63
2022-12-08T13:37:55.452Z,8.02
2022-12-08T13:39:21.050Z,10.50
2022-12-08T13:40:42.199Z,12.95
2022-12-08T13:42:06.706Z,12.70
2022-12-08T13:43:47.479Z,8.98
2022-12-08T13:45:27.926Z,13.50
2022-12-08T13:52:15.766Z,14.57
2022-12-08T13:57:29.300Z,12.23
2022-12-08T13:58:49.805Z,12.38
2022-12-08T14:00:16.367Z,10.18
2022-12-08T14:01:44.021Z,9.98
2022-12-08T14:03:04.473Z,11.55
2022-12-08T14:07:34.240Z,17.73
2022-12-08T14:09:03.775Z,10.73
2022-12-08T14:10:30.108Z,10.32
2022-12-08T14:11:53.957Z,12.60
2022-12-08T14:13:15.612Z,13.00
2022-12-08T14:15:01.782Z,11.18
2022-12-08T14:16:28.127Z,22.13
2022-12-08T14:17:51.638Z,8.82
2022-12-08T14:19:17.433Z,14.65
2022-12-08T14:21:12.042Z,8.88
2022-12-08T14:22:19.475Z,5.45
2022-12-08T14:23:44.008Z,11.68
2022-12-08T14:25:06.054Z,7.90
2022-12-08T14:26:26.551Z,9.45
2022-12-08T14:27:47.406Z,12.68
2022-12-08T14:29:08.272Z,8.65
2022-12-08T14:30:31.866Z,7.57
2022-12-08T14:31:53.504Z,6.15
2022-12-08T14:33:15.470Z,7.80
2022-12-08T14:34:38.904Z,8.40
2022-12-08T14:35:59.740Z,10.18
2022-12-08T14:37:22.548Z,12.65
2022-12-08T14:38:42.909Z,5.40
2022-12-08T14:40:06.476Z,10.77
2022-12-08T14:41:32.328Z,8.57
2022-12-08T14:42:54.749Z,6.82
2022-12-08T14:44:22.829Z,8.63
2022-12-08T14:45:48.192Z,7.68
2022-12-08T14:47:10.082Z,12.43
2022-12-08T14:48:41.024Z,7.93
2022-12-08T14:50:03.031Z,14.32
2022-12-08T14:51:29.140Z,15.90
2022-12-08T14:52:51.274Z,17.20
2022-12-08T14:54:14.270Z,12.23
2022-12-08T14:55:38.146Z,16.17
2022-12-08T14:57:01.901Z,23.05
2022-12-08T14:58:26.649Z,21.48
2022-12-08T14:59:47.574Z,16.98
2022-12-08T15:01:08.520Z,17.35
2022-12-08T15:02:31.571Z,11.75
2022-12-08T15:03:52.237Z,11.38
2022-12-08T15:05:15.695Z,12.82
2022-12-08T15:06:36.581Z,14.23
2022-12-08T15:08:02.961Z,11.20
2022-12-08T15:09:31.503Z,12.45
2022-12-08T15:11:12.124Z,13.38
2022-12-08T15:12:32.729Z,13.70
2022-12-08T15:13:53.708Z,15.43
2022-12-08T15:15:15.950Z,9.90
2022-12-08T15:16:39.971Z,13.30
2022-12-08T15:18:11.364Z,18.02
2022-12-08T15:19:33.612Z,15.43
2022-12-08T15:20:56.192Z,23.10
2022-12-08T15:22:20.300Z,22.23
2022-12-08T15:23:43.907Z,18.35
2022-12-08T15:25:08.492Z,16.13
2022-12-08T15:26:29.012Z,14.88
2022-12-08T15:27:50.685Z,15.68
2022-12-08T15:29:13.639Z,15.40
2022-12-08T15:30:34.097Z,13.55
2022-12-08T15:31:56.795Z,18.90
2022-12-08T15:33:17.147Z,16.83
2022-12-08T15:34:37.976Z,18.90
2022-12-08T15:35:58.581Z,24.23
2022-12-08T15:37:21.598Z,19.30
2022-12-08T15:38:43.906Z,16.98
2022-12-08T15:40:05.928Z,14.57
2022-12-08T15:41:26.673Z,16.02
2022-12-08T15:42:47.603Z,20.83
2022-12-08T15:44:08.099Z,15.38
2022-12-08T15:45:31.215Z,15.32
2022-12-08T15:46:52.564Z,13.43
2022-12-08T15:48:16.739Z,11.40
2022-12-08T15:49:37.584Z,17.73
2022-12-08T15:50:58.786Z,14.10
2022-12-08T15:52:20.446Z,16.15
2022-12-08T15:53:40.995Z,21.95
2022-12-08T15:55:03.107Z,16.55
2022-12-08T15:56:28.010Z,32.00
2022-12-08T15:58:51.329Z,16.73
2022-12-08T15:59:31.661Z,17.60
2022-12-08T16:00:54.566Z,26.67
2022-12-08T16:02:22.231Z,17.85
2022-12-08T16:04:20.263Z,21.15
2022-12-08T16:05:42.962Z,16.38
2022-12-08T16:07:21.258Z,21.13
2022-12-08T16:08:52.188Z,15.80
2022-12-08T16:10:25.804Z,12.55
2022-12-08T16:12:05.882Z,16.52
2022-12-08T16:13:56.216Z,19.75
2022-12-08T16:16:48.641Z,16.83
2022-12-08T16:18:14.992Z,13.77
2022-12-08T16:19:35.494Z,19.00
2022-12-08T16:24:17.322Z,20.02
2022-12-08T16:26:15.657Z,16.50
2022-12-08T16:29:05.155Z,16.92
2022-12-08T16:30:25.987Z,13.80
2022-12-08T16:31:46.639Z,15.60
2022-12-08T16:33:07.340Z,12.27
2022-12-08T16:34:28.110Z,11.20
2022-12-08T16:35:48.745Z,10.57
2022-12-08T16:37:14.684Z,10.88
2022-12-08T16:38:35.522Z,11.98
2022-12-08T16:39:57.117Z,13.13
2022-12-08T16:42:39.618Z,21.35
2022-12-08T16:44:01.878Z,17.05
2022-12-08T16:45:24.570Z,14.60
2022-12-08T16:46:45.444Z,15.13
2022-12-08T16:48:06.305Z,13.93
2022-12-08T16:49:27.133Z,14.68
2022-12-08T16:50:47.750Z,11.63
2022-12-08T16:52:08.318Z,16.45
2022-12-08T16:53:30.083Z,24.05
2022-12-08T16:54:50.681Z,12.73
2022-12-08T16:56:15.467Z,12.60
2022-12-08T16:57:37.485Z,14.40
2022-12-08T16:58:58.114Z,19.50
2022-12-08T17:00:20.618Z,14.10
2022-12-08T17:01:41.171Z,9.25
2022-12-08T17:03:01.821Z,13.52
2022-12-08T17:04:31.392Z,12.15
2022-12-08T17:05:52.419Z,14.13
2022-12-08T17:07:12.804Z,10.75
2022-12-08T17:08:33.502Z,10.55
2022-12-08T17:09:54.002Z,13.02
2022-12-08T17:11:21.169Z,10.23
2022-12-08T17:12:43.752Z,7.18
2022-12-08T17:14:04.526Z,9.20
2022-12-08T17:15:25.747Z,9.15
2022-12-08T17:16:46.132Z,6.03
2022-12-08T17:18:08.686Z,8.18
2022-12-08T17:19:29.586Z,11.32
2022-12-08T17:20:50.267Z,14.60
2022-12-08T17:22:10.942Z,10.57
2022-12-08T17:23:31.522Z,9.55
2022-12-08T17:24:52.182Z,12.95
2022-12-08T17:26:13.339Z,11.95
2022-12-08T17:28:08.191Z,14.50
2022-12-08T17:29:23.664Z,16.35
2022-12-08T17:30:44.443Z,10.05
2022-12-08T17:32:05.811Z,14.85
2022-12-08T17:33:27.014Z,18.65
2022-12-08T17:34:48.216Z,14.68
2022-12-08T17:36:11.532Z,15.05
2022-12-08T17:37:32.008Z,14.00
2022-12-08T17:38:52.542Z,12.52
2022-12-08T17:40:13.472Z,10.48
2022-12-08T17:41:35.116Z,13.30
2022-12-08T17:42:56.768Z,13.95
2022-12-08T17:44:18.829Z,15.65
2022-12-08T17:45:42.376Z,20.02
2022-12-08T17:47:04.510Z,15.25
2022-12-08T17:48:25.326Z,22.20
2022-12-08T17:49:46.029Z,16.98
2022-12-08T17:51:09.530Z,10.82
2022-12-08T17:52:31.318Z,15.32
2022-12-08T17:53:51.939Z,18.73
2022-12-08T17:55:12.555Z,11.45
2022-12-08T17:56:34.184Z,13.93
2022-12-08T17:57:54.744Z,11.93
2022-12-08T17:59:15.770Z,19.15
2022-12-08T18:00:36.491Z,15.18
2022-12-08T18:01:58.899Z,15.02
2022-12-08T18:03:19.691Z,18.13
2022-12-08T18:04:41.503Z,18.73
2022-12-08T18:06:05.440Z,24.52
2022-12-08T18:07:26.397Z,28.30
2022-12-08T18:08:48.001Z,24.23
2022-12-08T18:10:08.945Z,15.60
2022-12-08T18:11:30.050Z,17.20
2022-12-08T18:14:12.054Z,18.27
2022-12-08T18:15:38.867Z,18.00
2022-12-08T18:17:01.339Z,20.38
2022-12-08T18:18:23.993Z,18.13
2022-12-08T18:19:44.491Z,28.70
2022-12-08T18:21:07.063Z,17.40
2022-12-08T18:22:27.676Z,14.57
2022-12-08T18:23:48.407Z,17.55
2022-12-08T18:25:10.074Z,14.23
2022-12-08T18:27:53.731Z,15.60
2022-12-08T18:29:14.961Z,17.27
2022-12-08T18:30:35.438Z,17.10
2022-12-08T18:31:56.172Z,15.77
2022-12-08T18:33:18.151Z,19.20
2022-12-08T18:34:38.800Z,20.55
2022-12-08T18:35:59.431Z,22.15
2022-12-08T18:37:20.513Z,14.57
2022-12-08T18:38:42.992Z,14.40
2022-12-08T18:40:04.203Z,23.98
2022-12-08T18:42:46.069Z,22.33
2022-12-08T18:44:07.029Z,12.57
2022-12-08T18:45:28.730Z,18.35
2022-12-08T18:46:53.307Z,16.63
2022-12-08T18:48:13.686Z,15.63
2022-12-08T18:49:35.797Z,14.20
2022-12-08T18:50:56.747Z,20.27